sensor_id;sensor_type;location;lat;lon;timestamp;P1;durP1;ratioP1;P2;durP2;ratioP2
26512;SDS011;14186;53.822;10.152;2024-01-30T00:01:24;9.85;;;5.05;;
26512;SDS011;14186;53.822;10.152;2024-01-30T00:06:24;11.73;;;5.40;;
26512;SDS011;14186;53.822;10.152;2024-01-30T00:11:25;12.98;;;5.93;;
26512;SDS011;14186;53.822;10.152;2024-01-30T00:16:26;10.55;;;5.30;;
26512;SDS011;14186;53.822;10.152;2024-01-30T00:21:26;11.65;;;5.88;;
26512;SDS011;14186;53.822;10.152;2024-01-30T00:26:26;10.48;;;5.65;;
26512;SDS011;14186;53.822;10.152;2024-01-30T00:31:28;10.05;;;5.57;;
26512;SDS011;14186;53.822;10.152;2024-01-30T00:36:28;12.77;;;5.72;;
26512;SDS011;14186;53.822;10.152;2024-01-30T00:41:28;12.98;;;5.80;;
26512;SDS011;14186;53.822;10.152;2024-01-30T00:46:30;11.43;;;5.70;;
26512;SDS011;14186;53.822;10.152;2024-01-30T00:51:30;12.45;;;6.30;;
26512;SDS011;14186;53.822;10.152;2024-01-30T00:56:30;11.18;;;6.10;;
26512;SDS011;14186;53.822;10.152;2024-01-30T01:01:32;12.35;;;5.30;;
26512;SDS011;14186;53.822;10.152;2024-01-30T01:06:32;11.95;;;5.75;;
26512;SDS011;14186;53.822;10.152;2024-01-30T01:11:32;12.07;;;5.78;;
26512;SDS011;14186;53.822;10.152;2024-01-30T01:16:34;11.88;;;6.78;;
26512;SDS011;14186;53.822;10.152;2024-01-30T01:21:34;12.98;;;6.60;;
26512;SDS011;14186;53.822;10.152;2024-01-30T01:26:34;11.35;;;5.75;;
26512;SDS011;14186;53.822;10.152;2024-01-30T01:31:36;16.40;;;7.45;;
26512;SDS011;14186;53.822;10.152;2024-01-30T01:36:36;11.82;;;5.88;;
26512;SDS011;14186;53.822;10.152;2024-01-30T01:41:36;11.20;;;5.78;;
26512;SDS011;14186;53.822;10.152;2024-01-30T01:46:38;11.85;;;6.68;;
26512;SDS011;14186;53.822;10.152;2024-01-30T01:51:38;10.80;;;5.75;;
26512;SDS011;14186;53.822;10.152;2024-01-30T01:56:39;12.43;;;6.15;;
26512;SDS011;14186;53.822;10.152;2024-01-30T02:01:41;14.52;;;6.45;;
26512;SDS011;14186;53.822;10.152;2024-01-30T02:06:41;12.48;;;6.13;;
26512;SDS011;14186;53.822;10.152;2024-01-30T02:11:42;11.98;;;6.22;;
26512;SDS011;14186;53.822;10.152;2024-01-30T02:16:44;13.52;;;6.35;;
26512;SDS011;14186;53.822;10.152;2024-01-30T02:21:45;12.32;;;6.20;;
26512;SDS011;14186;53.822;10.152;2024-01-30T02:26:46;13.02;;;5.72;;
26512;SDS011;14186;53.822;10.152;2024-01-30T02:31:46;10.93;;;5.05;;
26512;SDS011;14186;53.822;10.152;2024-01-30T02:36:50;12.40;;;5.95;;
26512;SDS011;14186;53.822;10.152;2024-01-30T02:41:50;10.98;;;5.63;;
26512;SDS011;14186;53.822;10.152;2024-01-30T02:46:50;13.00;;;5.85;;
26512;SDS011;14186;53.822;10.152;2024-01-30T02:51:53;7.75;;;4.97;;
26512;SDS011;14186;53.822;10.152;2024-01-30T02:56:53;10.43;;;5.15;;
26512;SDS011;14186;53.822;10.152;2024-01-30T03:01:53;11.95;;;5.28;;
26512;SDS011;14186;53.822;10.152;2024-01-30T03:06:55;10.15;;;4.65;;
26512;SDS011;14186;53.822;10.152;2024-01-30T03:11:55;10.02;;;5.22;;
26512;SDS011;14186;53.822;10.152;2024-01-30T03:16:55;11.50;;;5.90;;
26512;SDS011;14186;53.822;10.152;2024-01-30T03:21:57;10.82;;;5.03;;
26512;SDS011;14186;53.822;10.152;2024-01-30T03:26:57;6.85;;;4.25;;
26512;SDS011;14186;53.822;10.152;2024-01-30T03:31:57;10.75;;;5.38;;
26512;SDS011;14186;53.822;10.152;2024-01-30T03:36:59;11.32;;;5.03;;
26512;SDS011;14186;53.822;10.152;2024-01-30T03:41:59;11.55;;;5.80;;
26512;SDS011;14186;53.822;10.152;2024-01-30T03:47:00;10.27;;;4.97;;
26512;SDS011;14186;53.822;10.152;2024-01-30T03:52:01;9.75;;;5.10;;
26512;SDS011;14186;53.822;10.152;2024-01-30T03:57:01;9.10;;;5.03;;
26512;SDS011;14186;53.822;10.152;2024-01-30T04:02:02;9.10;;;4.72;;
26512;SDS011;14186;53.822;10.152;2024-01-30T04:07:03;9.05;;;4.93;;
26512;SDS011;14186;53.822;10.152;2024-01-30T04:12:04;9.77;;;5.18;;
26512;SDS011;14186;53.822;10.152;2024-01-30T04:17:04;10.60;;;5.05;;
26512;SDS011;14186;53.822;10.152;2024-01-30T04:22:06;10.20;;;5.40;;
26512;SDS011;14186;53.822;10.152;2024-01-30T04:27:06;11.45;;;5.13;;
26512;SDS011;14186;53.822;10.152;2024-01-30T04:32:06;12.23;;;5.50;;
26512;SDS011;14186;53.822;10.152;2024-01-30T04:37:08;9.88;;;4.88;;
26512;SDS011;14186;53.822;10.152;2024-01-30T04:42:08;10.13;;;5.75;;
26512;SDS011;14186;53.822;10.152;2024-01-30T04:47:08;11.75;;;5.38;;
26512;SDS011;14186;53.822;10.152;2024-01-30T04:52:10;13.43;;;5.18;;
26512;SDS011;14186;53.822;10.152;2024-01-30T04:57:10;13.45;;;5.95;;
26512;SDS011;14186;53.822;10.152;2024-01-30T05:02:11;12.20;;;5.10;;
26512;SDS011;14186;53.822;10.152;2024-01-30T05:07:12;10.40;;;5.32;;
26512;SDS011;14186;53.822;10.152;2024-01-30T05:12:12;13.48;;;6.20;;
26512;SDS011;14186;53.822;10.152;2024-01-30T05:17:13;11.80;;;5.57;;
26512;SDS011;14186;53.822;10.152;2024-01-30T05:22:14;12.38;;;6.45;;
26512;SDS011;14186;53.822;10.152;2024-01-30T05:27:14;11.88;;;5.82;;
26512;SDS011;14186;53.822;10.152;2024-01-30T05:32:14;10.32;;;4.60;;
26512;SDS011;14186;53.822;10.152;2024-01-30T05:37:16;10.82;;;5.00;;
26512;SDS011;14186;53.822;10.152;2024-01-30T05:42:16;9.77;;;5.32;;
26512;SDS011;14186;53.822;10.152;2024-01-30T05:47:16;11.35;;;5.82;;
26512;SDS011;14186;53.822;10.152;2024-01-30T05:52:18;12.18;;;6.53;;
26512;SDS011;14186;53.822;10.152;2024-01-30T05:57:18;10.20;;;6.22;;
26512;SDS011;14186;53.822;10.152;2024-01-30T06:02:18;12.55;;;6.28;;
26512;SDS011;14186;53.822;10.152;2024-01-30T06:07:20;13.05;;;6.07;;
26512;SDS011;14186;53.822;10.152;2024-01-30T06:12:20;15.38;;;6.35;;
26512;SDS011;14186;53.822;10.152;2024-01-30T06:17:20;15.40;;;6.57;;
26512;SDS011;14186;53.822;10.152;2024-01-30T06:22:22;14.82;;;7.00;;
26512;SDS011;14186;53.822;10.152;2024-01-30T06:27:22;12.80;;;6.47;;
26512;SDS011;14186;53.822;10.152;2024-01-30T06:32:22;13.93;;;6.90;;
26512;SDS011;14186;53.822;10.152;2024-01-30T06:37:24;13.60;;;6.90;;
26512;SDS011;14186;53.822;10.152;2024-01-30T06:42:24;14.80;;;7.18;;
26512;SDS011;14186;53.822;10.152;2024-01-30T06:47:24;12.10;;;6.80;;
26512;SDS011;14186;53.822;10.152;2024-01-30T06:52:26;15.38;;;7.45;;
26512;SDS011;14186;53.822;10.152;2024-01-30T06:57:26;13.10;;;7.20;;
26512;SDS011;14186;53.822;10.152;2024-01-30T07:02:26;12.38;;;6.53;;
26512;SDS011;14186;53.822;10.152;2024-01-30T07:07:28;15.10;;;7.53;;
26512;SDS011;14186;53.822;10.152;2024-01-30T07:12:28;12.63;;;6.68;;
26512;SDS011;14186;53.822;10.152;2024-01-30T07:17:30;14.95;;;7.20;;
26512;SDS011;14186;53.822;10.152;2024-01-30T07:22:32;11.50;;;6.05;;
26512;SDS011;14186;53.822;10.152;2024-01-30T07:27:33;13.18;;;6.32;;
26512;SDS011;14186;53.822;10.152;2024-01-30T07:32:33;13.25;;;6.85;;
26512;SDS011;14186;53.822;10.152;2024-01-30T07:37:34;15.65;;;7.25;;
26512;SDS011;14186;53.822;10.152;2024-01-30T07:42:34;15.82;;;7.18;;
26512;SDS011;14186;53.822;10.152;2024-01-30T07:47:35;13.25;;;6.47;;
26512;SDS011;14186;53.822;10.152;2024-01-30T07:52:36;10.82;;;6.28;;
26512;SDS011;14186;53.822;10.152;2024-01-30T07:57:38;12.20;;;7.18;;
26512;SDS011;14186;53.822;10.152;2024-01-30T08:02:38;14.52;;;7.60;;
26512;SDS011;14186;53.822;10.152;2024-01-30T08:07:39;12.32;;;7.28;;
26512;SDS011;14186;53.822;10.152;2024-01-30T08:12:40;16.85;;;7.47;;
26512;SDS011;14186;53.822;10.152;2024-01-30T08:17:40;13.40;;;7.07;;
26512;SDS011;14186;53.822;10.152;2024-01-30T08:22:41;13.25;;;6.43;;
26512;SDS011;14186;53.822;10.152;2024-01-30T08:27:42;14.07;;;7.55;;
26512;SDS011;14186;53.822;10.152;2024-01-30T08:32:42;16.80;;;7.20;;
26512;SDS011;14186;53.822;10.152;2024-01-30T08:37:43;18.02;;;7.20;;
26512;SDS011;14186;53.822;10.152;2024-01-30T08:42:44;16.08;;;7.72;;
26512;SDS011;14186;53.822;10.152;2024-01-30T08:47:44;12.23;;;6.75;;
26512;SDS011;14186;53.822;10.152;2024-01-30T08:52:46;16.05;;;8.02;;
26512;SDS011;14186;53.822;10.152;2024-01-30T08:57:46;14.20;;;7.20;;
26512;SDS011;14186;53.822;10.152;2024-01-30T09:02:46;13.02;;;7.13;;
26512;SDS011;14186;53.822;10.152;2024-01-30T09:07:48;13.50;;;7.22;;
26512;SDS011;14186;53.822;10.152;2024-01-30T09:12:48;12.80;;;7.03;;
26512;SDS011;14186;53.822;10.152;2024-01-30T09:17:48;11.30;;;6.57;;
26512;SDS011;14186;53.822;10.152;2024-01-30T09:22:50;12.27;;;6.70;;
26512;SDS011;14186;53.822;10.152;2024-01-30T09:27:50;12.18;;;6.65;;
26512;SDS011;14186;53.822;10.152;2024-01-30T09:32:50;13.65;;;6.70;;
26512;SDS011;14186;53.822;10.152;2024-01-30T09:37:51;14.82;;;6.97;;
26512;SDS011;14186;53.822;10.152;2024-01-30T09:42:52;10.48;;;6.00;;
26512;SDS011;14186;53.822;10.152;2024-01-30T09:47:52;14.35;;;6.60;;
26512;SDS011;14186;53.822;10.152;2024-01-30T09:52:54;11.07;;;6.25;;
26512;SDS011;14186;53.822;10.152;2024-01-30T09:57:55;14.15;;;6.43;;
26512;SDS011;14186;53.822;10.152;2024-01-30T10:02:55;13.40;;;7.18;;
26512;SDS011;14186;53.822;10.152;2024-01-30T10:07:57;12.45;;;6.88;;
26512;SDS011;14186;53.822;10.152;2024-01-30T10:12:57;12.05;;;6.07;;
26512;SDS011;14186;53.822;10.152;2024-01-30T10:17:57;14.00;;;7.13;;
26512;SDS011;14186;53.822;10.152;2024-01-30T10:22:58;12.95;;;6.68;;
26512;SDS011;14186;53.822;10.152;2024-01-30T10:27:59;11.98;;;6.20;;
26512;SDS011;14186;53.822;10.152;2024-01-30T10:32:59;12.73;;;7.15;;
26512;SDS011;14186;53.822;10.152;2024-01-30T10:38:01;14.35;;;6.95;;
26512;SDS011;14186;53.822;10.152;2024-01-30T10:43:01;13.93;;;7.03;;
26512;SDS011;14186;53.822;10.152;2024-01-30T10:48:01;9.98;;;5.97;;
26512;SDS011;14186;53.822;10.152;2024-01-30T10:53:05;14.90;;;7.53;;
26512;SDS011;14186;53.822;10.152;2024-01-30T10:58:05;13.98;;;6.72;;
26512;SDS011;14186;53.822;10.152;2024-01-30T11:03:06;13.30;;;6.43;;
26512;SDS011;14186;53.822;10.152;2024-01-30T11:08:14;12.32;;;6.68;;
26512;SDS011;14186;53.822;10.152;2024-01-30T11:13:14;15.60;;;6.45;;
26512;SDS011;14186;53.822;10.152;2024-01-30T11:18:22;11.77;;;7.15;;
26512;SDS011;14186;53.822;10.152;2024-01-30T11:23:24;13.57;;;6.50;;
26512;SDS011;14186;53.822;10.152;2024-01-30T11:28:25;14.45;;;6.57;;
26512;SDS011;14186;53.822;10.152;2024-01-30T11:33:31;12.23;;;6.90;;
26512;SDS011;14186;53.822;10.152;2024-01-30T11:38:33;9.70;;;5.57;;
26512;SDS011;14186;53.822;10.152;2024-01-30T11:43:33;14.48;;;6.93;;
26512;SDS011;14186;53.822;10.152;2024-01-30T11:48:33;14.90;;;6.80;;
26512;SDS011;14186;53.822;10.152;2024-01-30T11:53:35;9.85;;;5.55;;
26512;SDS011;14186;53.822;10.152;2024-01-30T11:58:35;10.75;;;6.32;;
26512;SDS011;14186;53.822;10.152;2024-01-30T12:03:35;13.68;;;7.38;;
26512;SDS011;14186;53.822;10.152;2024-01-30T12:08:37;12.02;;;6.38;;
26512;SDS011;14186;53.822;10.152;2024-01-30T12:13:37;13.13;;;6.95;;
26512;SDS011;14186;53.822;10.152;2024-01-30T12:18:37;11.35;;;7.03;;
26512;SDS011;14186;53.822;10.152;2024-01-30T12:23:39;14.25;;;6.65;;
26512;SDS011;14186;53.822;10.152;2024-01-30T12:28:47;13.45;;;5.72;;
26512;SDS011;14186;53.822;10.152;2024-01-30T12:33:48;13.10;;;6.32;;
26512;SDS011;14186;53.822;10.152;2024-01-30T12:38:50;12.60;;;5.78;;
26512;SDS011;14186;53.822;10.152;2024-01-30T12:43:50;13.85;;;6.90;;
26512;SDS011;14186;53.822;10.152;2024-01-30T12:48:51;12.88;;;6.07;;
26512;SDS011;14186;53.822;10.152;2024-01-30T12:53:52;12.07;;;7.18;;
26512;SDS011;14186;53.822;10.152;2024-01-30T12:58:52;14.85;;;6.90;;
26512;SDS011;14186;53.822;10.152;2024-01-30T13:03:52;10.57;;;6.30;;
26512;SDS011;14186;53.822;10.152;2024-01-30T13:08:54;16.80;;;6.55;;
26512;SDS011;14186;53.822;10.152;2024-01-30T13:13:54;11.52;;;5.88;;
26512;SDS011;14186;53.822;10.152;2024-01-30T13:18:55;9.70;;;5.68;;
26512;SDS011;14186;53.822;10.152;2024-01-30T13:23:56;15.85;;;7.45;;
26512;SDS011;14186;53.822;10.152;2024-01-30T13:28:56;12.50;;;6.88;;
26512;SDS011;14186;53.822;10.152;2024-01-30T13:33:57;11.32;;;5.88;;
26512;SDS011;14186;53.822;10.152;2024-01-30T13:38:58;11.98;;;5.80;;
26512;SDS011;14186;53.822;10.152;2024-01-30T13:43:58;11.63;;;6.70;;
26512;SDS011;14186;53.822;10.152;2024-01-30T13:48:59;14.23;;;6.35;;
26512;SDS011;14186;53.822;10.152;2024-01-30T13:54:00;11.43;;;6.53;;
26512;SDS011;14186;53.822;10.152;2024-01-30T13:59:00;13.02;;;6.22;;
26512;SDS011;14186;53.822;10.152;2024-01-30T14:04:00;11.18;;;5.95;;
26512;SDS011;14186;53.822;10.152;2024-01-30T14:09:02;9.93;;;5.35;;
26512;SDS011;14186;53.822;10.152;2024-01-30T14:14:02;12.25;;;5.78;;
26512;SDS011;14186;53.822;10.152;2024-01-30T14:19:02;11.23;;;6.05;;
26512;SDS011;14186;53.822;10.152;2024-01-30T14:24:04;11.60;;;6.13;;
26512;SDS011;14186;53.822;10.152;2024-01-30T14:29:05;13.75;;;6.22;;
26512;SDS011;14186;53.822;10.152;2024-01-30T14:34:05;13.27;;;5.75;;
26512;SDS011;14186;53.822;10.152;2024-01-30T14:39:06;11.52;;;5.57;;
26512;SDS011;14186;53.822;10.152;2024-01-30T14:44:06;14.13;;;6.00;;
26512;SDS011;14186;53.822;10.152;2024-01-30T14:49:07;10.43;;;5.82;;
26512;SDS011;14186;53.822;10.152;2024-01-30T14:54:08;14.82;;;6.28;;
26512;SDS011;14186;53.822;10.152;2024-01-30T14:59:08;11.70;;;6.10;;
26512;SDS011;14186;53.822;10.152;2024-01-30T15:04:09;13.15;;;6.60;;
26512;SDS011;14186;53.822;10.152;2024-01-30T15:09:10;14.65;;;6.25;;
26512;SDS011;14186;53.822;10.152;2024-01-30T15:14:10;13.80;;;6.38;;
26512;SDS011;14186;53.822;10.152;2024-01-30T15:19:11;12.43;;;6.03;;
26512;SDS011;14186;53.822;10.152;2024-01-30T15:24:12;13.30;;;6.00;;
26512;SDS011;14186;53.822;10.152;2024-01-30T15:29:13;14.80;;;6.35;;
26512;SDS011;14186;53.822;10.152;2024-01-30T15:34:13;13.00;;;5.88;;
26512;SDS011;14186;53.822;10.152;2024-01-30T15:39:14;12.88;;;6.15;;
26512;SDS011;14186;53.822;10.152;2024-01-30T15:44:15;14.60;;;6.53;;
26512;SDS011;14186;53.822;10.152;2024-01-30T15:49:15;11.35;;;6.20;;
26512;SDS011;14186;53.822;10.152;2024-01-30T15:54:16;16.70;;;8.68;;
26512;SDS011;14186;53.822;10.152;2024-01-30T15:59:16;12.88;;;7.03;;
26512;SDS011;14186;53.822;10.152;2024-01-30T16:04:17;14.70;;;7.28;;
26512;SDS011;14186;53.822;10.152;2024-01-30T16:09:18;11.68;;;6.50;;
26512;SDS011;14186;53.822;10.152;2024-01-30T16:14:19;13.50;;;6.50;;
26512;SDS011;14186;53.822;10.152;2024-01-30T16:19:19;14.52;;;7.10;;
26512;SDS011;14186;53.822;10.152;2024-01-30T16:24:21;13.70;;;6.38;;
26512;SDS011;14186;53.822;10.152;2024-01-30T16:29:21;9.50;;;5.70;;
26512;SDS011;14186;53.822;10.152;2024-01-30T16:34:21;15.85;;;6.25;;
26512;SDS011;14186;53.822;10.152;2024-01-30T16:39:23;14.95;;;6.30;;
26512;SDS011;14186;53.822;10.152;2024-01-30T16:44:23;12.10;;;6.82;;
26512;SDS011;14186;53.822;10.152;2024-01-30T16:49:24;12.75;;;6.45;;
26512;SDS011;14186;53.822;10.152;2024-01-30T16:54:25;9.02;;;5.28;;
26512;SDS011;14186;53.822;10.152;2024-01-30T16:59:26;12.63;;;6.93;;
26512;SDS011;14186;53.822;10.152;2024-01-30T17:04:26;15.88;;;7.05;;
26512;SDS011;14186;53.822;10.152;2024-01-30T17:09:27;14.07;;;6.78;;
26512;SDS011;14186;53.822;10.152;2024-01-30T17:14:27;15.48;;;6.60;;
26512;SDS011;14186;53.822;10.152;2024-01-30T17:19:28;12.02;;;6.03;;
26512;SDS011;14186;53.822;10.152;2024-01-30T17:24:30;14.23;;;6.78;;
26512;SDS011;14186;53.822;10.152;2024-01-30T17:29:30;14.77;;;7.18;;
26512;SDS011;14186;53.822;10.152;2024-01-30T17:34:31;12.95;;;7.03;;
26512;SDS011;14186;53.822;10.152;2024-01-30T17:39:32;14.05;;;6.82;;
26512;SDS011;14186;53.822;10.152;2024-01-30T17:44:32;17.98;;;8.38;;
26512;SDS011;14186;53.822;10.152;2024-01-30T17:49:33;14.07;;;7.20;;
26512;SDS011;14186;53.822;10.152;2024-01-30T17:54:34;19.77;;;7.50;;
26512;SDS011;14186;53.822;10.152;2024-01-30T17:59:35;16.45;;;7.50;;
26512;SDS011;14186;53.822;10.152;2024-01-30T18:04:36;13.70;;;7.07;;
26512;SDS011;14186;53.822;10.152;2024-01-30T18:09:39;14.15;;;6.80;;
26512;SDS011;14186;53.822;10.152;2024-01-30T18:14:40;14.30;;;7.30;;
26512;SDS011;14186;53.822;10.152;2024-01-30T18:19:40;11.18;;;6.45;;
26512;SDS011;14186;53.822;10.152;2024-01-30T18:24:41;12.88;;;6.72;;
26512;SDS011;14186;53.822;10.152;2024-01-30T18:29:42;12.55;;;5.65;;
26512;SDS011;14186;53.822;10.152;2024-01-30T18:34:42;13.40;;;5.97;;
26512;SDS011;14186;53.822;10.152;2024-01-30T18:39:43;15.18;;;6.70;;
26512;SDS011;14186;53.822;10.152;2024-01-30T18:44:43;10.45;;;4.63;;
26512;SDS011;14186;53.822;10.152;2024-01-30T18:49:44;9.68;;;3.47;;
26512;SDS011;14186;53.822;10.152;2024-01-30T18:54:45;4.90;;;2.10;;
26512;SDS011;14186;53.822;10.152;2024-01-30T18:59:45;3.00;;;1.48;;
26512;SDS011;14186;53.822;10.152;2024-01-30T19:04:45;2.40;;;1.38;;
26512;SDS011;14186;53.822;10.152;2024-01-30T19:09:47;2.30;;;1.17;;
26512;SDS011;14186;53.822;10.152;2024-01-30T19:14:48;5.60;;;2.00;;
26512;SDS011;14186;53.822;10.152;2024-01-30T19:19:48;5.63;;;1.98;;
26512;SDS011;14186;53.822;10.152;2024-01-30T19:24:49;4.18;;;1.70;;
26512;SDS011;14186;53.822;10.152;2024-01-30T19:29:50;3.08;;;1.58;;
26512;SDS011;14186;53.822;10.152;2024-01-30T19:34:50;4.97;;;2.00;;
26512;SDS011;14186;53.822;10.152;2024-01-30T19:39:51;4.88;;;2.05;;
26512;SDS011;14186;53.822;10.152;2024-01-30T19:44:52;3.88;;;2.03;;
26512;SDS011;14186;53.822;10.152;2024-01-30T19:49:52;6.13;;;2.40;;
26512;SDS011;14186;53.822;10.152;2024-01-30T19:54:53;4.30;;;2.38;;
26512;SDS011;14186;53.822;10.152;2024-01-30T19:59:54;3.42;;;2.03;;
26512;SDS011;14186;53.822;10.152;2024-01-30T20:04:54;4.78;;;2.67;;
26512;SDS011;14186;53.822;10.152;2024-01-30T20:09:55;5.13;;;1.98;;
26512;SDS011;14186;53.822;10.152;2024-01-30T20:14:55;4.55;;;2.28;;
26512;SDS011;14186;53.822;10.152;2024-01-30T20:19:56;4.70;;;1.92;;
26512;SDS011;14186;53.822;10.152;2024-01-30T20:24:57;7.35;;;2.33;;
26512;SDS011;14186;53.822;10.152;2024-01-30T20:29:57;4.45;;;2.20;;
26512;SDS011;14186;53.822;10.152;2024-01-30T20:34:58;4.57;;;2.05;;
26512;SDS011;14186;53.822;10.152;2024-01-30T20:39:59;4.57;;;1.80;;
26512;SDS011;14186;53.822;10.152;2024-01-30T20:44:59;4.03;;;2.05;;
26512;SDS011;14186;53.822;10.152;2024-01-30T20:50:00;4.30;;;2.50;;
26512;SDS011;14186;53.822;10.152;2024-01-30T20:55:02;6.80;;;2.95;;
26512;SDS011;14186;53.822;10.152;2024-01-30T21:00:03;9.75;;;3.00;;
26512;SDS011;14186;53.822;10.152;2024-01-30T21:05:03;5.70;;;2.65;;
26512;SDS011;14186;53.822;10.152;2024-01-30T21:10:05;6.68;;;2.78;;
26512;SDS011;14186;53.822;10.152;2024-01-30T21:15:06;4.68;;;2.22;;
26512;SDS011;14186;53.822;10.152;2024-01-30T21:20:06;4.68;;;2.55;;
26512;SDS011;14186;53.822;10.152;2024-01-30T21:25:08;4.85;;;2.30;;
26512;SDS011;14186;53.822;10.152;2024-01-30T21:30:10;4.38;;;2.10;;
26512;SDS011;14186;53.822;10.152;2024-01-30T21:35:10;3.88;;;1.83;;
26512;SDS011;14186;53.822;10.152;2024-01-30T21:40:12;5.30;;;1.90;;
26512;SDS011;14186;53.822;10.152;2024-01-30T21:45:12;6.78;;;2.50;;
26512;SDS011;14186;53.822;10.152;2024-01-30T21:50:13;4.97;;;1.95;;
26512;SDS011;14186;53.822;10.152;2024-01-30T21:55:14;3.28;;;1.73;;
26512;SDS011;14186;53.822;10.152;2024-01-30T22:00:15;5.55;;;1.75;;
26512;SDS011;14186;53.822;10.152;2024-01-30T22:05:15;3.70;;;1.63;;
26512;SDS011;14186;53.822;10.152;2024-01-30T22:10:17;3.42;;;1.42;;
26512;SDS011;14186;53.822;10.152;2024-01-30T22:15:17;3.83;;;1.55;;
26512;SDS011;14186;53.822;10.152;2024-01-30T22:20:17;2.22;;;0.95;;
26512;SDS011;14186;53.822;10.152;2024-01-30T22:25:19;2.17;;;1.13;;
26512;SDS011;14186;53.822;10.152;2024-01-30T22:30:19;1.48;;;0.65;;
26512;SDS011;14186;53.822;10.152;2024-01-30T22:35:19;2.42;;;0.73;;
26512;SDS011;14186;53.822;10.152;2024-01-30T22:40:21;1.42;;;0.80;;
26512;SDS011;14186;53.822;10.152;2024-01-30T22:45:21;2.03;;;0.73;;
26512;SDS011;14186;53.822;10.152;2024-01-30T22:50:21;2.50;;;1.20;;
26512;SDS011;14186;53.822;10.152;2024-01-30T22:55:23;4.82;;;1.73;;
26512;SDS011;14186;53.822;10.152;2024-01-30T23:00:23;6.78;;;2.40;;
26512;SDS011;14186;53.822;10.152;2024-01-30T23:05:23;4.72;;;1.33;;
26512;SDS011;14186;53.822;10.152;2024-01-30T23:10:25;3.88;;;1.27;;
26512;SDS011;14186;53.822;10.152;2024-01-30T23:15:25;4.75;;;1.17;;
26512;SDS011;14186;53.822;10.152;2024-01-30T23:20:25;4.65;;;1.45;;
26512;SDS011;14186;53.822;10.152;2024-01-30T23:25:27;3.15;;;1.20;;
26512;SDS011;14186;53.822;10.152;2024-01-30T23:30:27;2.30;;;1.05;;
26512;SDS011;14186;53.822;10.152;2024-01-30T23:35:27;3.85;;;1.20;;
26512;SDS011;14186;53.822;10.152;2024-01-30T23:40:29;2.85;;;0.73;;
26512;SDS011;14186;53.822;10.152;2024-01-30T23:45:29;5.28;;;1.05;;
26512;SDS011;14186;53.822;10.152;2024-01-30T23:50:29;2.95;;;0.95;;
26512;SDS011;14186;53.822;10.152;2024-01-30T23:55:31;5.18;;;0.93;;
